WetterOnline ( https://www.wetteronline.de )

Wetter aktuell Schleswig

Aktuelles Wetter: Schleswig (48m)

6-stündlich | Neueste Meldungen
Ortszeit Temperatur Wetter
Sa, 01.10. 8:00 9.5° C leichter Regen
Sa, 01.10. 2:00 10.4° C bedeckt
Fr, 30.09. 20:00 11.2° C leicht bewölkt
Fr, 30.09. 14:00 13.7° C bewölkt
Fr, 30.09. 8:00 9.4° C bedeckt
Fr, 30.09. 2:00 9.3° C bedeckt
Do, 29.09. 20:00 10.2° C bedeckt
Do, 29.09. 14:00 10.5° C leichter Regen
Ortszeit Temperatur Wetter
Sa, 01.10. 13:30 15.4° C bewölkt
Sa, 01.10. 13:20 15.4° C bewölkt
Sa, 01.10. 13:10 15.0° C bedeckt
Sa, 01.10. 13:00 12.9° C bedeckt
Sa, 01.10. 12:50 12.9° C bedeckt
Sa, 01.10. 12:40 12.2° C bedeckt
Sa, 01.10. 12:30 11.1° C bedeckt
Sa, 01.10. 12:00 10.3° C bedeckt
Sa, 01.10. 11:30 10.0° C bewölkt
Sa, 01.10. 11:00 9.8° C Sprühregen
Sa, 01.10. 10:30 9.6° C leichter Regen
Ortszeit Relative Feuchte Sichtweite
Sa, 01.10. 8:00 91% 12 km
Sa, 01.10. 2:00 77% 30 km
Fr, 30.09. 20:00 82% 50 km
Fr, 30.09. 14:00 78% 45 km
Fr, 30.09. 8:00 97% 9 km
Fr, 30.09. 2:00 97% 11 km
Do, 29.09. 20:00 95% 26 km
Do, 29.09. 14:00 97% 9 km
Ortszeit Relative Feuchte Sichtweite
Sa, 01.10. 13:30 82% 30 km
Sa, 01.10. 13:20 82% -
Sa, 01.10. 13:10 84% -
Sa, 01.10. 13:00 94% 22 km
Sa, 01.10. 12:50 94% -
Sa, 01.10. 12:40 95% -
Sa, 01.10. 12:30 95% 18 km
Sa, 01.10. 12:00 96% 25 km
Sa, 01.10. 11:30 96% 21 km
Sa, 01.10. 11:00 97% 4.3 km
Sa, 01.10. 10:30 96% 5.0 km
Ortszeit Niederschlagsmenge Niederschlagsart
Sa, 01.10. 8:00 1 l/m2 in 12 Std. Regen
Sa, 01.10. 2:00 0.0 l/m2 in 6 Std. -
Fr, 30.09. 20:00 1 l/m2 in 12 Std. Regen
Fr, 30.09. 14:00 0.1 l/m2 in 6 Std. Regen
Fr, 30.09. 8:00 0.1 l/m2 in 12 Std. -
Fr, 30.09. 2:00 0.1 l/m2 in 6 Std. Regen
Do, 29.09. 20:00 16 l/m2 in 12 Std. Regen
Do, 29.09. 14:00 14 l/m2 in 6 Std. Regen
Ortszeit Niederschlagsmenge Niederschlagsart
Sa, 01.10. 13:30 0.0 l/m2 in 1 Std. -
Sa, 01.10. 13:20 keine Meldung -
Sa, 01.10. 13:10 keine Meldung -
Sa, 01.10. 13:00 <0.05 l/m2 in 1 Std. Sprühregen
Sa, 01.10. 12:50 keine Meldung -
Sa, 01.10. 12:40 keine Meldung -
Sa, 01.10. 12:30 <0.05 l/m2 in 1 Std. Schnee
Sa, 01.10. 12:00 0.4 l/m2 in 1 Std. Regen
Sa, 01.10. 11:30 0.4 l/m2 in 1 Std. Schneeregen
Sa, 01.10. 11:00 2.2 l/m2 in 1 Std. Regen
Sa, 01.10. 10:30 1.5 l/m2 in 1 Std. -
Ortszeit Stärke Spitze Richtung
km/h Bft. km/h Grad Sektor
Sa, 01.10. 8:00 17 3 39 160° S
Sa, 01.10. 2:00 13 3 22 170° S
Fr, 30.09. 20:00 7 2 36 180° S
Fr, 30.09. 14:00 7 2 29 230° SW
Fr, 30.09. 8:00 7 2 11 200° S
Fr, 30.09. 2:00 6 1 15 220° SW
Do, 29.09. 20:00 7 2 25 280° W
Do, 29.09. 14:00 9 2 28 280° W
Ortszeit Stärke Spitze Richtung
km/h Bft. km/h Grad Sektor
Sa, 01.10. 13:30 18 3 43 260° W
Sa, 01.10. 13:20 18 3 - 260° W
Sa, 01.10. 13:10 22 4 - 250° W
Sa, 01.10. 13:00 17 3 31 210° SW
Sa, 01.10. 12:50 17 3 - 210° SW
Sa, 01.10. 12:40 18 3 - 200° S
Sa, 01.10. 12:30 13 3 26 200° S
Sa, 01.10. 12:00 13 3 26 200° S
Sa, 01.10. 11:30 13 3 24 190° S
Sa, 01.10. 11:00 11 2 29 180° S
Sa, 01.10. 10:30 14 3 29 180° S
Ortszeit Untergrenze Bedeckung Gattung
total tief tief mittel hoch
Sa, 01.10. 8:00 690 m 8/8 8/8 - - -
Sa, 01.10. 2:00 6300 m 8/8 8/8 - - -
Fr, 30.09. 20:00 1170 m 3/8 1/8 - - -
Fr, 30.09. 14:00 630 m 7/8 7/8 - - -
Fr, 30.09. 8:00 30 m 8/8 8/8 - - -
Fr, 30.09. 2:00 240 m 8/8 8/8 - - -
Do, 29.09. 20:00 720 m 8/8 8/8 - - -
Do, 29.09. 14:00 90 m 7/8 7/8 - - -
Ortszeit Bedeckungsgrad in Achtel und Wolkenuntergrenze
Sa, 01.10. 13:30 6(630m) 7(930m) 8(6600m)
Sa, 01.10. 13:20 6(630m) 7(930m) 8(6600m)
Sa, 01.10. 13:10 8
Sa, 01.10. 13:00 3(180m) 8(780m) 8(1170m)
Sa, 01.10. 12:50 3(180m) 8(780m) 8(1170m)
Sa, 01.10. 12:40 8
Sa, 01.10. 12:30 7(120m) 8(270m)
Sa, 01.10. 12:00 8(120m)
Sa, 01.10. 11:30 7(120m)
Sa, 01.10. 11:00 7(150m)
Sa, 01.10. 10:30 7(210m) 8(300m)
Ortszeit Luftdruck NN (hPa) Tendenz (hPa in 3 Std.)
Sa, 01.10. 8:00 999 - 2,4
Sa, 01.10. 2:00 1004 - 1,9
Fr, 30.09. 20:00 1008 - 0,2
Fr, 30.09. 14:00 1008 + 0,2
Fr, 30.09. 8:00 1007 + 1,5
Fr, 30.09. 2:00 1005 + 0,9
Do, 29.09. 20:00 1003 + 1,5
Do, 29.09. 14:00 1000 + 0,7
Ortszeit Luftdruck NN (hPa) Tendenz (hPa in 3 Std.)
Sa, 01.10. 13:30 997 - 0,4
Sa, 01.10. 13:20 997 keine Meldung
Sa, 01.10. 13:10 997 keine Meldung
Sa, 01.10. 13:00 997 - 0,8
Sa, 01.10. 12:50 997 keine Meldung
Sa, 01.10. 12:40 997 keine Meldung
Sa, 01.10. 12:30 997 - 1,0
Sa, 01.10. 12:00 997 - 1,3
Sa, 01.10. 11:30 997 - 1,5
Sa, 01.10. 11:00 997 - 1,7
Sa, 01.10. 10:30 998 - 1,9
Ortszeit Schneehöhe (cm)
Sa, 01.10. 8:00 0
Sa, 01.10. 2:00 0
Fr, 30.09. 20:00 0
Fr, 30.09. 14:00 0
Fr, 30.09. 8:00 0
Fr, 30.09. 2:00 0
Do, 29.09. 20:00 0
Do, 29.09. 14:00 0
Ortszeit Schneehöhe (cm)
Sa, 01.10. 13:30 0
Sa, 01.10. 13:20 0
Sa, 01.10. 13:10 0
Sa, 01.10. 13:00 0
Sa, 01.10. 12:50 0
Sa, 01.10. 12:40 0
Sa, 01.10. 12:30 0
Sa, 01.10. 12:00 0
Sa, 01.10. 11:30 0
Sa, 01.10. 11:00 0
Sa, 01.10. 10:30 0
Link zu dieser Seite / Seite empfehlen

Das Wetter in ...